Time,TemperatureF,DewpointF,PressureIn,WindDirection,WindDirectionDegrees,WindSpeedMPH,WindSpeedGustMPH,Humidity,HourlyPrecipIn,Conditions,Clouds,dailyrainin,SoftwareType,DateUTC
2013-01-24 00:00:00,13.1,7.8,30.17,NW,319,3.0,5.0,79,0.00,-SN,,0.00,WeatherDisplay:10.37,2013-01-24 05:00:00,
2013-01-24 00:15:00,12.7,7.7,30.19,NW,315,3.0,4.0,80,0.00,SCT,,0.00,WeatherDisplay:10.37,2013-01-24 05:15:00,
2013-01-24 00:30:00,12.4,7.7,30.19,WNW,302,2.0,6.0,81,0.00,SCT,,0.00,WeatherDisplay:10.37,2013-01-24 05:30:00,
2013-01-24 00:45:00,11.7,7.0,30.20,WNW,303,2.0,3.0,81,0.00,SCT,,0.00,WeatherDisplay:10.37,2013-01-24 05:45:00,
2013-01-24 01:00:00,11.0,6.3,30.21,WNW,287,2.0,3.0,81,0.00,SCT,,0.00,WeatherDisplay:10.37,2013-01-24 06:00:00,
2013-01-24 01:15:00,10.2,5.3,30.21,WNW,293,1.0,3.0,80,0.00,CLR,,0.00,WeatherDisplay:10.37,2013-01-24 06:15:00,
2013-01-24 01:30:00,8.8,3.9,30.21,West,266,0.0,2.0,80,0.00,CLR,,0.00,WeatherDisplay:10.37,2013-01-24 06:30:00,
2013-01-24 01:45:00,8.1,3.4,30.23,SE,129,0.0,1.0,81,0.00,CLR,,0.00,WeatherDisplay:10.37,2013-01-24 06:45:00,
2013-01-24 02:00:00,8.1,4.0,30.24,East,99,0.0,1.0,83,0.00,CLR,,0.00,WeatherDisplay:10.37,2013-01-24 07:00:00,
2013-01-24 02:15:00,7.7,3.6,30.25,South,175,0.0,2.0,83,0.00,CLR,,0.00,WeatherDisplay:10.37,2013-01-24 07:15:00,
2013-01-24 02:30:00,6.1,1.5,30.25,SE,134,0.0,2.0,81,0.00,CLR,,0.00,WeatherDisplay:10.37,2013-01-24 07:30:00,
2013-01-24 02:45:00,6.3,1.9,30.26,SSE,165,1.0,2.0,82,0.00,CLR,,0.00,WeatherDisplay:10.37,2013-01-24 07:45:00,
2013-01-24 03:00:00,6.6,2.6,30.30,SSW,207,0.0,2.0,83,0.00,CLR,,0.00,WeatherDisplay:10.37,2013-01-24 08:00:00,
2013-01-24 03:15:00,6.6,2.6,30.30,WSW,243,2.0,3.0,83,0.00,-SN,,0.00,WeatherDisplay:10.37,2013-01-24 08:15:00,
2013-01-24 03:30:00,6.1,1.8,30.30,SW,226,0.0,2.0,82,0.00,-SN,,0.00,WeatherDisplay:10.37,2013-01-24 08:30:00,
2013-01-24 03:45:00,5.9,1.6,30.32,SW,217,0.0,1.0,82,0.00,SCT,,0.00,WeatherDisplay:10.37,2013-01-24 08:45:00,
2013-01-24 04:00:00,5.5,1.2,30.34,SSW,207,0.0,2.0,82,0.00,SCT,,0.00,WeatherDisplay:10.37,2013-01-24 09:00:00,
2013-01-24 04:15:00,5.5,1.5,30.36,North,10,0.0,1.0,83,0.00,CLR,,0.00,WeatherDisplay:10.37,2013-01-24 09:15:00,
2013-01-24 04:30:00,4.5,0.2,30.36,North,5,1.0,3.0,82,0.00,CLR,,0.00,WeatherDisplay:10.37,2013-01-24 09:30:00,
2013-01-24 04:45:00,4.5,0.4,30.38,NNW,335,1.0,3.0,83,0.00,CLR,,0.00,WeatherDisplay:10.37,2013-01-24 09:45:00,
2013-01-24 05:00:00,4.8,0.8,30.39,North,3,2.0,4.0,83,0.00,CLR,,0.00,WeatherDisplay:10.37,2013-01-24 10:00:00,
2013-01-24 05:15:00,5.2,1.1,30.40,NE,46,1.0,5.0,83,0.00,CLR,,0.00,WeatherDisplay:10.37,2013-01-24 10:15:00,
2013-01-24 05:30:00,5.9,2.1,30.40,NNE,16,2.0,4.0,84,0.00,CLR,,0.00,WeatherDisplay:10.37,2013-01-24 10:30:00,
2013-01-24 05:45:00,6.1,2.3,30.40,NE,51,3.0,6.0,84,0.00,CLR,,0.00,WeatherDisplay:10.37,2013-01-24 10:45:00,
2013-01-24 06:00:00,6.3,2.5,30.42,NNE,31,2.0,5.0,84,0.00,CLR,,0.00,WeatherDisplay:10.37,2013-01-24 11:00:00,
2013-01-24 06:15:00,6.3,2.2,30.43,North,7,2.0,5.0,83,0.00,CLR,,0.00,WeatherDisplay:10.37,2013-01-24 11:15:00,
2013-01-24 06:30:00,6.3,2.2,30.43,NE,53,1.0,5.0,83,0.00,CLR,,0.00,WeatherDisplay:10.37,2013-01-24 11:30:00,
2013-01-24 06:45:00,6.1,2.0,30.45,East,97,0.0,2.0,83,0.00,CLR,,0.00,WeatherDisplay:10.37,2013-01-24 11:45:00,
2013-01-24 07:00:00,5.2,0.9,30.47,NNW,342,0.0,2.0,82,0.00,CLR,,0.00,WeatherDisplay:10.37,2013-01-24 12:00:00,
2013-01-24 07:15:00,4.5,0.2,30.49,ENE,69,0.0,2.0,82,0.00,CLR,,0.00,WeatherDisplay:10.37,2013-01-24 12:15:00,
2013-01-24 07:30:00,4.5,0.2,30.49,SE,127,0.0,0.0,82,0.00,CLR,,0.00,WeatherDisplay:10.37,2013-01-24 12:30:00,
2013-01-24 07:45:00,4.1,-0.2,30.49,West,274,0.0,0.0,82,0.00,CLR,,0.00,WeatherDisplay:10.37,2013-01-24 12:45:00,
2013-01-24 08:00:00,3.2,-1.0,30.51,SSW,199,0.0,1.0,82,0.00,CLR,,0.00,WeatherDisplay:10.37,2013-01-24 13:00:00,
2013-01-24 08:15:00,3.0,-1.2,30.51,SSW,206,0.0,0.0,82,0.00,CLR,,0.00,WeatherDisplay:10.37,2013-01-24 13:15:00,
2013-01-24 08:30:00,3.0,-1.0,30.51,SSW,193,0.0,0.0,83,0.00,CLR,,0.00,WeatherDisplay:10.37,2013-01-24 13:30:00,
2013-01-24 08:45:00,2.7,-1.6,30.52,WSW,248,0.0,0.0,82,0.00,CLR,,0.00,WeatherDisplay:10.37,2013-01-24 13:45:00,
2013-01-24 09:00:00,3.0,-1.0,30.53,WSW,248,1.0,2.0,83,0.00,CLR,,0.00,WeatherDisplay:10.37,2013-01-24 14:00:00,
2013-01-24 09:15:00,4.1,0.1,30.54,WNW,303,0.0,0.0,83,0.00,FEW,,0.00,WeatherDisplay:10.37,2013-01-24 14:15:00,
2013-01-24 09:30:00,7.1,3.3,30.54,NW,304,0.0,0.0,84,0.00,FEW,,0.00,WeatherDisplay:10.37,2013-01-24 14:30:00,
2013-01-24 09:45:00,10.9,7.1,30.54,NNE,22,0.0,1.0,84,0.00,FEW,,0.00,WeatherDisplay:10.37,2013-01-24 14:45:00,
2013-01-24 10:00:00,14.5,9.5,30.56,NE,44,1.0,2.0,80,0.00,FEW,,0.00,WeatherDisplay:10.37,2013-01-24 15:00:00,
2013-01-24 10:15:00,15.6,9.4,30.57,NE,34,2.0,6.0,76,0.00,SCT,,0.00,WeatherDisplay:10.37,2013-01-24 15:15:00,
2013-01-24 10:30:00,16.0,9.2,30.57,NE,36,1.0,3.0,74,0.00,SCT,,0.00,WeatherDisplay:10.37,2013-01-24 15:30:00,
2013-01-24 10:45:00,15.6,8.5,30.60,NE,37,3.0,6.0,73,0.00,SCT,,0.00,WeatherDisplay:10.37,2013-01-24 15:45:00,
2013-01-24 11:00:00,15.3,8.2,30.60,NNE,31,2.0,5.0,73,0.00,SCT,,0.00,WeatherDisplay:10.37,2013-01-24 16:00:00,
2013-01-24 11:15:00,15.2,7.8,30.59,NE,38,2.0,6.0,72,0.00,SCT,,0.00,WeatherDisplay:10.37,2013-01-24 16:15:00,
2013-01-24 11:30:00,14.7,6.7,30.59,NNE,28,3.0,7.0,70,0.00,SCT,,0.00,WeatherDisplay:10.37,2013-01-24 16:30:00,
2013-01-24 11:45:00,14.9,6.6,30.59,NE,37,3.0,6.0,69,0.00,SCT,,0.00,WeatherDisplay:10.37,2013-01-24 16:45:00,
2013-01-24 12:00:00,14.9,6.6,30.59,South,170,2.0,6.0,69,0.00,SCT,,0.00,WeatherDisplay:10.37,2013-01-24 17:00:00,
2013-01-24 12:15:00,14.9,6.2,30.58,SE,130,3.0,4.0,68,0.00,SCT,,0.00,WeatherDisplay:10.37,2013-01-24 17:15:00,
2013-01-24 12:30:00,15.3,6.3,30.58,East,97,2.0,4.0,67,0.00,SCT,,0.00,WeatherDisplay:10.37,2013-01-24 17:30:00,
2013-01-24 12:45:00,15.6,6.6,30.58,SSE,168,1.0,4.0,67,0.00,SCT,,0.00,WeatherDisplay:10.37,2013-01-24 17:45:00,
2013-01-24 13:00:00,15.6,6.3,30.58,SE,125,1.0,4.0,66,0.00,SCT,,0.00,WeatherDisplay:10.37,2013-01-24 18:00:00,
2013-01-24 13:15:00,16.0,6.6,30.57,SE,144,2.0,4.0,66,0.00,SCT,,0.00,WeatherDisplay:10.37,2013-01-24 18:15:00,
2013-01-24 13:30:00,16.3,6.6,30.57,South,176,2.0,3.0,65,0.00,BKN,,0.00,WeatherDisplay:10.37,2013-01-24 18:30:00,
2013-01-24 13:45:00,16.7,6.6,30.56,SSW,192,3.0,5.0,64,0.00,BKN,,0.00,WeatherDisplay:10.37,2013-01-24 18:45:00,
2013-01-24 14:00:00,17.1,7.0,30.56,WSW,248,3.0,5.0,64,0.00,BKN,,0.00,WeatherDisplay:10.37,2013-01-24 19:00:00,
2013-01-24 14:15:00,17.2,6.8,30.56,WNW,285,1.0,4.0,63,0.00,BKN,,0.00,WeatherDisplay:10.37,2013-01-24 19:15:00,
2013-01-24 14:30:00,17.4,6.6,30.56,SE,139,2.0,4.0,62,0.00,BKN,,0.00,WeatherDisplay:10.37,2013-01-24 19:30:00,
2013-01-24 14:45:00,17.6,6.4,30.55,SSW,198,2.0,4.0,61,0.00,BKN,,0.00,WeatherDisplay:10.37,2013-01-24 19:45:00,
2013-01-24 15:00:00,18.0,7.1,30.54,South,189,1.0,3.0,62,0.00,BKN,,0.00,WeatherDisplay:10.37,2013-01-24 20:00:00,
2013-01-24 15:15:00,18.3,7.5,30.54,South,184,2.0,3.0,62,0.00,BKN,,0.00,WeatherDisplay:10.37,2013-01-24 20:15:00,
2013-01-24 15:30:00,18.5,7.6,30.54,WSW,249,2.0,5.0,62,0.00,BKN,,0.00,WeatherDisplay:10.37,2013-01-24 20:30:00,
2013-01-24 15:45:00,18.5,7.6,30.55,SW,233,2.0,3.0,62,0.00,BKN,,0.00,WeatherDisplay:10.37,2013-01-24 20:45:00,
2013-01-24 16:00:00,18.9,7.6,30.55,WNW,283,3.0,6.0,61,0.00,BKN,,0.00,WeatherDisplay:10.37,2013-01-24 21:00:00,
2013-01-24 16:15:00,18.9,7.6,30.55,WSW,247,1.0,3.0,61,0.00,BKN,,0.00,WeatherDisplay:10.37,2013-01-24 21:15:00,
2013-01-24 16:30:00,18.9,7.6,30.55,SSE,167,0.0,2.0,61,0.00,BKN,,0.00,WeatherDisplay:10.37,2013-01-24 21:30:00,
2013-01-24 16:45:00,18.5,7.3,30.54,WSW,237,2.0,3.0,61,0.00,BKN,,0.00,WeatherDisplay:10.37,2013-01-24 21:45:00,
2013-01-24 17:00:00,18.2,7.0,30.54,NW,306,1.0,3.0,61,0.00,BKN,,0.00,WeatherDisplay:10.37,2013-01-24 22:00:00,
2013-01-24 17:15:00,17.8,6.6,30.54,WNW,290,2.0,3.0,61,0.00,BKN,,0.00,WeatherDisplay:10.37,2013-01-24 22:15:00,
2013-01-24 17:30:00,17.1,6.3,30.54,WSW,257,2.0,5.0,62,0.00,BKN,,0.00,WeatherDisplay:10.37,2013-01-24 22:30:00,
2013-01-24 17:45:00,16.7,5.9,30.54,West,267,3.0,6.0,62,0.00,BKN,,0.00,WeatherDisplay:10.37,2013-01-24 22:45:00,
2013-01-24 18:00:00,16.0,5.6,30.55,WNW,292,2.0,5.0,63,0.00,BKN,,0.00,WeatherDisplay:10.37,2013-01-24 23:00:00,
2013-01-24 18:15:00,15.6,5.2,30.54,West,279,1.0,3.0,63,0.00,OVC,,0.00,WeatherDisplay:10.37,2013-01-24 23:15:00,
2013-01-24 18:30:00,14.9,4.9,30.54,West,270,1.0,2.0,64,0.00,OVC,,0.00,WeatherDisplay:10.37,2013-01-24 23:30:00,
2013-01-24 18:45:00,14.5,4.6,30.55,WSW,256,0.0,2.0,64,0.00,OVC,,0.00,WeatherDisplay:10.37,2013-01-24 23:45:00,
2013-01-24 19:00:00,13.8,4.5,30.54,NE,45,0.0,0.0,66,0.00,OVC,,0.00,WeatherDisplay:10.37,2013-01-25 00:00:00,
2013-01-24 19:15:00,13.5,4.5,30.53,SSW,194,0.0,0.0,67,0.00,OVC,,0.00,WeatherDisplay:10.37,2013-01-25 00:15:00,
2013-01-24 19:30:00,13.3,4.7,30.53,ESE,114,0.0,1.0,68,0.00,OVC,,0.00,WeatherDisplay:10.37,2013-01-25 00:30:00,
2013-01-24 19:45:00,13.3,5.0,30.52,SE,131,0.0,2.0,69,0.00,OVC,,0.00,WeatherDisplay:10.37,2013-01-25 00:45:00,
2013-01-24 20:00:00,13.5,5.5,30.51,East,89,0.0,0.0,70,0.00,OVC,,0.00,WeatherDisplay:10.37,2013-01-25 01:00:00,
2013-01-24 20:15:00,13.5,5.5,30.50,East,83,0.0,1.0,70,0.00,OVC,,0.00,WeatherDisplay:10.37,2013-01-25 01:15:00,
2013-01-24 20:30:00,13.5,5.8,30.50,ENE,60,0.0,0.0,71,0.00,OVC,,0.00,WeatherDisplay:10.37,2013-01-25 01:30:00,
2013-01-24 20:45:00,13.5,5.8,30.50,NE,44,0.0,0.0,71,0.00,OVC,,0.00,WeatherDisplay:10.37,2013-01-25 01:45:00,
2013-01-24 21:00:00,13.5,6.1,30.49,SE,132,0.0,2.0,72,0.00,OVC,,0.00,WeatherDisplay:10.37,2013-01-25 02:00:00,
2013-01-24 21:15:00,13.3,5.9,30.48,ESE,102,0.0,1.0,72,0.00,OVC,,0.00,WeatherDisplay:10.37,2013-01-25 02:15:00,
2013-01-24 21:30:00,13.8,6.8,30.48,ESE,114,1.0,3.0,73,0.00,OVC,,0.00,WeatherDisplay:10.37,2013-01-25 02:30:00,
2013-01-24 21:45:00,13.8,6.8,30.48,SE,136,2.0,3.0,73,0.00,OVC,,0.00,WeatherDisplay:10.37,2013-01-25 02:45:00,
2013-01-24 22:00:00,14.2,6.8,30.47,ESE,121,2.0,5.0,72,0.00,OVC,,0.00,WeatherDisplay:10.37,2013-01-25 03:00:00,
2013-01-24 22:15:00,14.5,7.2,30.47,SSE,152,2.0,3.0,72,0.00,OVC,,0.00,WeatherDisplay:10.37,2013-01-25 03:15:00,
2013-01-24 22:30:00,14.5,6.8,30.47,SE,135,2.0,5.0,71,0.00,OVC,,0.00,WeatherDisplay:10.37,2013-01-25 03:30:00,
2013-01-24 22:45:00,14.5,6.5,30.47,SE,126,2.0,3.0,70,0.00,OVC,,0.00,WeatherDisplay:10.37,2013-01-25 03:45:00,
2013-01-24 23:00:00,14.8,6.8,30.47,SSE,157,1.0,2.0,70,0.00,OVC,,0.00,WeatherDisplay:10.37,2013-01-25 04:00:00,
2013-01-24 23:15:00,14.7,6.7,30.46,SSE,148,2.0,4.0,70,0.00,OVC,,0.00,WeatherDisplay:10.37,2013-01-25 04:15:00,
2013-01-24 23:30:00,14.9,6.9,30.46,ESE,117,2.0,7.0,70,0.00,OVC,,0.00,WeatherDisplay:10.37,2013-01-25 04:30:00,
2013-01-24 23:45:00,14.7,6.7,30.45,ESE,111,2.0,5.0,70,0.00,OVC,,0.00,WeatherDisplay:10.37,2013-01-25 04:45:00,